createdAt,value
2018-07-01T00:00:13.669Z,957.01
2018-07-01T00:01:13.579Z,956.97
2018-07-01T00:02:13.568Z,956.97
2018-07-01T00:03:13.557Z,956.97
2018-07-01T00:04:13.546Z,957.01
2018-07-01T00:05:13.536Z,957.02
2018-07-01T00:06:13.525Z,957.01
2018-07-01T00:07:13.514Z,957
2018-07-01T00:08:13.505Z,957.03
2018-07-01T00:09:13.493Z,957.01
2018-07-01T00:10:13.486Z,956.99
2018-07-01T00:11:13.472Z,957.03
2018-07-01T00:12:13.462Z,957.01
2018-07-01T00:13:13.452Z,957
2018-07-01T00:14:13.441Z,957.05
2018-07-01T00:15:13.439Z,957.02
2018-07-01T00:16:13.466Z,957.04
2018-07-01T00:17:13.409Z,957.01
2018-07-01T00:18:13.398Z,956.96
2018-07-01T00:19:13.391Z,956.94
2018-07-01T00:20:13.378Z,956.96
2018-07-01T00:21:13.371Z,956.96
2018-07-01T00:22:13.357Z,956.92
2018-07-01T00:23:13.345Z,956.9
2018-07-01T00:24:13.336Z,956.88
2018-07-01T00:25:13.323Z,956.9
2018-07-01T00:26:13.312Z,956.86
2018-07-01T00:27:13.304Z,956.86
2018-07-01T00:28:13.294Z,956.86
2018-07-01T00:29:13.282Z,956.83
2018-07-01T00:30:13.271Z,956.82
2018-07-01T00:31:13.259Z,956.82
2018-07-01T00:32:13.257Z,956.78
2018-07-01T00:33:13.239Z,956.81
2018-07-01T00:34:13.227Z,956.8
2018-07-01T00:35:13.216Z,956.78
2018-07-01T00:36:13.206Z,956.75
2018-07-01T00:37:13.194Z,956.78
2018-07-01T00:38:13.185Z,956.76
2018-07-01T00:39:13.173Z,956.74
2018-07-01T00:40:13.164Z,956.79
2018-07-01T00:41:13.151Z,956.8
2018-07-01T00:42:13.140Z,956.74
2018-07-01T00:43:13.130Z,956.76
2018-07-01T00:44:13.119Z,956.78
2018-07-01T00:45:13.113Z,956.75
2018-07-01T00:46:13.097Z,956.75
2018-07-01T00:47:13.088Z,956.7
2018-07-01T00:48:13.075Z,956.71
2018-07-01T00:49:13.069Z,956.73
2018-07-01T00:50:13.055Z,956.7
2018-07-01T00:51:13.044Z,956.74
2018-07-01T00:52:13.031Z,956.73
2018-07-01T00:53:13.022Z,956.75
2018-07-01T00:54:13.010Z,956.75
2018-07-01T00:55:12.999Z,956.73
2018-07-01T00:56:12.989Z,956.73
2018-07-01T00:57:12.977Z,956.72
2018-07-01T00:58:12.966Z,956.72
2018-07-01T00:59:12.956Z,956.7
2018-07-01T01:00:12.947Z,956.7
2018-07-01T01:01:12.934Z,956.73
2018-07-01T01:02:12.925Z,956.69
2018-07-01T01:03:12.912Z,956.73
2018-07-01T01:04:12.900Z,956.73
2018-07-01T01:05:12.890Z,956.73
2018-07-01T01:06:12.878Z,956.75
2018-07-01T01:07:12.868Z,956.74
2018-07-01T01:08:12.858Z,956.75
2018-07-01T01:09:12.846Z,956.75
2018-07-01T01:10:12.834Z,956.81
2018-07-01T01:11:12.824Z,956.77
2018-07-01T01:12:12.813Z,956.76
2018-07-01T01:13:12.801Z,956.79
2018-07-01T01:14:12.790Z,956.79
2018-07-01T01:15:12.779Z,956.8
2018-07-01T01:16:12.771Z,956.78
2018-07-01T01:17:12.757Z,956.81
2018-07-01T01:18:12.746Z,956.74
2018-07-01T01:19:12.735Z,956.81
2018-07-01T01:20:12.726Z,956.81
2018-07-01T01:21:12.712Z,956.8
2018-07-01T01:22:12.702Z,956.76
2018-07-01T01:23:12.692Z,956.79
2018-07-01T01:24:12.680Z,956.79
2018-07-01T01:25:12.668Z,956.79
2018-07-01T01:26:12.658Z,956.78
2018-07-01T01:27:12.645Z,956.74
2018-07-01T01:28:12.636Z,956.74
2018-07-01T01:29:12.624Z,956.74
2018-07-01T01:30:12.614Z,956.73
2018-07-01T01:31:12.602Z,956.71
2018-07-01T01:32:12.591Z,956.72
2018-07-01T01:33:12.581Z,956.73
2018-07-01T01:34:12.568Z,956.7
2018-07-01T01:35:12.557Z,956.67
2018-07-01T01:36:12.544Z,956.7
2018-07-01T01:37:12.535Z,956.71
2018-07-01T01:38:12.522Z,956.69
2018-07-01T01:39:12.511Z,956.67
2018-07-01T01:40:12.501Z,956.68
2018-07-01T01:41:12.491Z,956.69
2018-07-01T01:42:12.494Z,956.7
2018-07-01T01:43:12.466Z,956.69
2018-07-01T01:44:12.455Z,956.68
2018-07-01T01:45:12.442Z,956.67
2018-07-01T01:46:12.431Z,956.65
2018-07-01T01:47:12.418Z,956.63
2018-07-01T01:48:12.413Z,956.7
2018-07-01T01:49:12.399Z,956.73
2018-07-01T01:50:12.384Z,956.75
2018-07-01T01:51:12.374Z,956.71
2018-07-01T01:52:12.362Z,956.64
2018-07-01T01:53:12.350Z,956.64
2018-07-01T01:54:12.338Z,956.66
2018-07-01T01:55:12.327Z,956.67
2018-07-01T01:56:12.317Z,956.65
2018-07-01T01:57:12.302Z,956.65
2018-07-01T01:58:12.292Z,956.66
2018-07-01T01:59:12.282Z,956.61
2018-07-01T02:00:12.269Z,956.63
2018-07-01T02:01:12.258Z,956.62
2018-07-01T02:02:12.246Z,956.64
2018-07-01T02:03:12.234Z,956.65
2018-07-01T02:04:12.221Z,956.64
2018-07-01T02:05:12.210Z,956.62
2018-07-01T02:06:12.200Z,956.65
2018-07-01T02:07:12.188Z,956.66
2018-07-01T02:08:12.177Z,956.6
2018-07-01T02:09:12.164Z,956.6
2018-07-01T02:10:12.152Z,956.6
2018-07-01T02:11:12.139Z,956.58
2018-07-01T02:12:12.129Z,956.6
2018-07-01T02:13:12.116Z,956.64
2018-07-01T02:14:12.104Z,956.63
2018-07-01T02:15:12.092Z,956.6
2018-07-01T02:16:12.085Z,956.62
2018-07-01T02:17:12.070Z,956.63
2018-07-01T02:18:12.058Z,956.65
2018-07-01T02:19:12.046Z,956.64
2018-07-01T02:20:12.034Z,956.66
2018-07-01T02:21:12.022Z,956.7
2018-07-01T02:22:12.010Z,956.66
2018-07-01T02:23:11.998Z,956.72
2018-07-01T02:24:11.986Z,956.69
2018-07-01T02:25:11.976Z,956.76
2018-07-01T02:26:11.962Z,956.72
2018-07-01T02:27:11.952Z,956.72
2018-07-01T02:28:11.939Z,956.69
2018-07-01T02:29:11.929Z,956.67
2018-07-01T02:30:11.918Z,956.7
2018-07-01T02:31:11.909Z,956.7
2018-07-01T02:32:11.893Z,956.69
2018-07-01T02:33:11.880Z,956.69
2018-07-01T02:34:11.869Z,956.71
2018-07-01T02:35:11.905Z,956.67
2018-07-01T02:36:11.845Z,956.62
2018-07-01T02:37:11.834Z,956.68
2018-07-01T02:38:11.821Z,956.65
2018-07-01T02:39:11.809Z,956.68
2018-07-01T02:40:11.798Z,956.68
2018-07-01T02:41:11.797Z,956.68
2018-07-01T02:42:11.774Z,956.7
2018-07-01T02:43:11.763Z,956.66
2018-07-01T02:44:11.749Z,956.68
2018-07-01T02:45:11.736Z,956.68
2018-07-01T02:46:11.725Z,956.71
2018-07-01T02:47:11.714Z,956.72
2018-07-01T02:48:11.700Z,956.69
2018-07-01T02:49:11.690Z,956.71
2018-07-01T02:50:11.678Z,956.66
2018-07-01T02:51:11.666Z,956.64
2018-07-01T02:52:11.654Z,956.67
2018-07-01T02:53:11.642Z,956.7
2018-07-01T02:54:11.629Z,956.7
2018-07-01T02:55:11.617Z,956.72
2018-07-01T02:56:11.607Z,956.61
2018-07-01T02:57:11.593Z,956.67
2018-07-01T02:58:11.588Z,956.65
2018-07-01T02:59:11.568Z,956.66
2018-07-01T03:00:11.556Z,956.67
2018-07-01T03:01:11.546Z,956.7
2018-07-01T03:02:11.538Z,956.71
2018-07-01T03:03:11.520Z,956.68
2018-07-01T03:04:11.546Z,956.69
2018-07-01T03:05:11.498Z,956.75
2018-07-01T03:06:11.484Z,956.71
2018-07-01T03:07:11.472Z,956.79
2018-07-01T03:08:11.460Z,956.78
2018-07-01T03:09:11.448Z,956.72
2018-07-01T03:10:11.437Z,956.73
2018-07-01T03:11:11.423Z,956.73
2018-07-01T03:12:11.412Z,956.75
2018-07-01T03:13:11.401Z,956.72
2018-07-01T03:14:11.387Z,956.74
2018-07-01T03:15:11.376Z,956.78
2018-07-01T03:16:11.364Z,956.75
2018-07-01T03:17:11.350Z,956.74
2018-07-01T03:18:11.339Z,956.71
2018-07-01T03:19:11.328Z,956.76
2018-07-01T03:20:11.316Z,956.74
2018-07-01T03:21:11.302Z,956.77
2018-07-01T03:22:11.291Z,956.76
2018-07-01T03:23:11.279Z,956.76
2018-07-01T03:24:11.276Z,956.76
2018-07-01T03:25:11.253Z,956.79
2018-07-01T03:26:11.243Z,956.83
2018-07-01T03:27:11.230Z,956.79
2018-07-01T03:28:11.217Z,956.8
2018-07-01T03:29:11.207Z,956.79
2018-07-01T03:30:11.194Z,956.8
2018-07-01T03:31:11.182Z,956.78
2018-07-01T03:32:11.170Z,956.78
2018-07-01T03:33:11.157Z,956.8
2018-07-01T03:34:11.145Z,956.8
2018-07-01T03:35:11.133Z,956.78
2018-07-01T03:36:11.121Z,956.79
2018-07-01T03:37:11.108Z,956.81
2018-07-01T03:38:11.098Z,956.83
2018-07-01T03:39:11.084Z,956.87
2018-07-01T03:40:11.074Z,956.87
2018-07-01T03:41:11.061Z,956.86
2018-07-01T03:42:11.048Z,956.87
2018-07-01T03:43:11.036Z,956.87
2018-07-01T03:44:11.024Z,956.86
2018-07-01T03:45:11.013Z,956.87
2018-07-01T03:46:10.999Z,956.86
2018-07-01T03:47:10.988Z,956.86
2018-07-01T03:48:10.976Z,956.87
2018-07-01T03:49:10.965Z,956.89
2018-07-01T03:50:10.953Z,956.89
2018-07-01T03:51:10.943Z,956.9
2018-07-01T03:52:10.928Z,956.92
2018-07-01T03:53:10.917Z,956.96
2018-07-01T03:54:10.904Z,956.96
2018-07-01T03:55:10.893Z,956.93
2018-07-01T03:56:10.881Z,956.93
2018-07-01T03:57:10.870Z,956.93
2018-07-01T03:58:10.860Z,956.96
2018-07-01T03:59:10.845Z,956.95
2018-07-01T04:00:10.835Z,957.01
2018-07-01T04:01:10.822Z,956.95
2018-07-01T04:02:10.809Z,956.94
2018-07-01T04:03:10.797Z,956.93
2018-07-01T04:04:10.788Z,956.96
2018-07-01T04:05:10.775Z,956.94
2018-07-01T04:06:10.766Z,956.96
2018-07-01T04:07:10.749Z,956.95
2018-07-01T04:08:10.739Z,956.95
2018-07-01T04:09:10.724Z,956.94
2018-07-01T04:10:10.714Z,957
2018-07-01T04:11:10.701Z,956.99
2018-07-01T04:12:10.688Z,957
2018-07-01T04:13:10.677Z,957.02
2018-07-01T04:14:10.668Z,957.02
2018-07-01T04:15:10.653Z,957.05
2018-07-01T04:16:10.641Z,956.99
2018-07-01T04:17:10.629Z,956.97
2018-07-01T04:18:10.618Z,957
2018-07-01T04:19:10.607Z,956.96
2018-07-01T04:20:10.593Z,956.98
2018-07-01T04:21:10.584Z,956.97
2018-07-01T04:22:10.570Z,956.99
2018-07-01T04:23:10.558Z,956.97
2018-07-01T04:24:10.546Z,957.01
2018-07-01T04:25:10.535Z,957.03
2018-07-01T04:26:10.523Z,956.99
2018-07-01T04:27:10.510Z,957
2018-07-01T04:28:10.500Z,957
2018-07-01T04:29:10.488Z,956.95
2018-07-01T04:30:10.475Z,956.97
2018-07-01T04:31:10.624Z,956.97
2018-07-01T04:32:10.455Z,956.97
2018-07-01T04:33:10.445Z,956.97
2018-07-01T04:34:10.428Z,956.96
2018-07-01T04:35:10.417Z,956.96
2018-07-01T04:36:10.407Z,956.99
2018-07-01T04:37:10.394Z,956.97
2018-07-01T04:38:10.382Z,956.93
2018-07-01T04:39:10.372Z,956.91
2018-07-01T04:40:10.359Z,956.89
2018-07-01T04:41:10.349Z,956.92
2018-07-01T04:42:10.336Z,956.99
2018-07-01T04:43:10.327Z,956.99
2018-07-01T04:44:10.314Z,956.98
2018-07-01T04:45:10.302Z,956.99
2018-07-01T04:46:10.292Z,957.01
2018-07-01T04:47:10.280Z,957.01
2018-07-01T04:48:10.268Z,956.99
2018-07-01T04:49:10.266Z,957.07
2018-07-01T04:50:10.245Z,957.05
2018-07-01T04:51:10.239Z,957.05
2018-07-01T04:52:10.223Z,957.05
2018-07-01T04:53:10.214Z,957.09
2018-07-01T04:54:10.206Z,957.07
2018-07-01T04:55:10.263Z,957.09
2018-07-01T04:56:10.179Z,957.1
2018-07-01T04:57:10.171Z,957.11
2018-07-01T04:58:10.157Z,957.07
2018-07-01T04:59:10.149Z,957.08
2018-07-01T05:00:10.138Z,957.09
2018-07-01T05:01:10.125Z,957.14
2018-07-01T05:02:10.201Z,957.12
2018-07-01T05:03:10.103Z,957.14
2018-07-01T05:04:10.091Z,957.14
2018-07-01T05:05:10.082Z,957.14
2018-07-01T05:06:10.071Z,957.1
2018-07-01T05:07:10.060Z,957.11
2018-07-01T05:08:10.049Z,957.08
2018-07-01T05:09:10.040Z,957.09
2018-07-01T05:10:10.029Z,957.12
2018-07-01T05:11:10.023Z,957.15
2018-07-01T05:12:10.008Z,957.15
2018-07-01T05:13:09.998Z,957.15
2018-07-01T05:14:09.990Z,957.18
2018-07-01T05:15:09.976Z,957.16
2018-07-01T05:16:09.965Z,957.17
2018-07-01T05:17:10.001Z,957.2
2018-07-01T05:18:09.944Z,957.14
2018-07-01T05:19:09.934Z,957.19
2018-07-01T05:20:09.924Z,957.15
2018-07-01T05:21:09.918Z,957.16
2018-07-01T05:22:09.903Z,957.16
2018-07-01T05:23:09.893Z,957.15
2018-07-01T05:24:09.887Z,957.17
2018-07-01T05:25:09.871Z,957.19
2018-07-01T05:26:09.862Z,957.18
2018-07-01T05:27:09.852Z,957.17
2018-07-01T05:28:09.842Z,957.2
2018-07-01T05:29:09.830Z,957.21
2018-07-01T05:30:09.821Z,957.21
2018-07-01T05:31:09.811Z,957.21
2018-07-01T05:32:09.801Z,957.2
2018-07-01T05:33:09.791Z,957.2
2018-07-01T05:34:09.780Z,957.21
2018-07-01T05:35:09.833Z,957.17
2018-07-01T05:36:09.760Z,957.22
2018-07-01T05:37:09.753Z,957.23
2018-07-01T05:38:09.741Z,957.18
2018-07-01T05:39:09.731Z,957.15
2018-07-01T05:40:09.721Z,957.15
2018-07-01T05:41:09.711Z,957.2
2018-07-01T05:42:09.703Z,957.16
2018-07-01T05:43:09.697Z,957.2
2018-07-01T05:44:09.681Z,957.23
2018-07-01T05:45:09.674Z,957.23
2018-07-01T05:46:09.663Z,957.24
2018-07-01T05:47:09.653Z,957.22
2018-07-01T05:48:09.643Z,957.27
2018-07-01T05:49:09.634Z,957.25
2018-07-01T05:50:09.626Z,957.25
2018-07-01T05:51:09.615Z,957.26
2018-07-01T05:52:09.607Z,957.28
2018-07-01T05:53:09.598Z,957.26
2018-07-01T05:54:09.588Z,957.25
2018-07-01T05:55:09.578Z,957.28
2018-07-01T05:56:09.569Z,957.27
2018-07-01T05:57:09.626Z,957.3
2018-07-01T05:58:09.551Z,957.27
2018-07-01T05:59:09.541Z,957.29
2018-07-01T06:00:09.535Z,957.3
2018-07-01T06:01:09.534Z,957.27
2018-07-01T06:02:09.514Z,957.3
2018-07-01T06:03:09.507Z,957.25
2018-07-01T06:04:09.497Z,957.28
2018-07-01T06:05:09.490Z,957.27
2018-07-01T06:06:09.479Z,957.28
2018-07-01T06:07:09.471Z,957.27
2018-07-01T06:08:09.464Z,957.25
2018-07-01T06:09:09.456Z,957.29
2018-07-01T06:10:09.447Z,957.22
2018-07-01T06:11:09.437Z,957.23
2018-07-01T06:12:09.428Z,957.24
2018-07-01T06:13:09.420Z,957.23
2018-07-01T06:14:09.493Z,957.23
2018-07-01T06:15:09.405Z,957.24
2018-07-01T06:16:09.397Z,957.27
2018-07-01T06:17:09.388Z,957.24
2018-07-01T06:18:09.381Z,957.22
2018-07-01T06:19:09.373Z,957.21
2018-07-01T06:20:09.365Z,957.24
2018-07-01T06:21:09.358Z,957.23
2018-07-01T06:22:09.351Z,957.25
2018-07-01T06:23:09.342Z,957.2
2018-07-01T06:24:09.334Z,957.22
2018-07-01T06:25:09.327Z,957.21
2018-07-01T06:26:09.321Z,957.19
2018-07-01T06:27:09.311Z,957.2
2018-07-01T06:28:09.309Z,957.2
2018-07-01T06:29:09.298Z,957.18
2018-07-01T06:30:09.292Z,957.23
2018-07-01T06:31:09.287Z,957.19
2018-07-01T06:32:09.279Z,957.21
2018-07-01T06:33:09.273Z,957.23
2018-07-01T06:34:09.263Z,957.26
2018-07-01T06:35:09.257Z,957.24
2018-07-01T06:36:09.252Z,957.23
2018-07-01T06:37:09.244Z,957.25
2018-07-01T06:38:09.240Z,957.22
2018-07-01T06:39:09.232Z,957.24
2018-07-01T06:40:09.225Z,957.25
2018-07-01T06:41:09.219Z,957.25
2018-07-01T06:42:09.212Z,957.29
2018-07-01T06:43:09.207Z,957.34
2018-07-01T06:44:09.202Z,957.33
2018-07-01T06:45:09.200Z,957.28
2018-07-01T06:46:09.188Z,957.34
2018-07-01T06:47:09.184Z,957.35
2018-07-01T06:48:09.179Z,957.36
2018-07-01T06:49:09.175Z,957.36
2018-07-01T06:50:09.174Z,957.35
2018-07-01T06:51:09.171Z,957.4
2018-07-01T06:52:09.162Z,957.36
2018-07-01T06:53:09.157Z,957.36
2018-07-01T06:54:09.153Z,957.31
2018-07-01T06:55:09.150Z,957.34
2018-07-01T06:56:09.147Z,957.32
2018-07-01T06:57:09.143Z,957.19
2018-07-01T06:58:09.141Z,957.3
2018-07-01T06:59:09.139Z,957.34
2018-07-01T07:00:09.137Z,957.33
2018-07-01T07:01:09.137Z,957.26
2018-07-01T07:02:09.133Z,957.27
2018-07-01T07:03:09.132Z,957.32
2018-07-01T07:04:09.131Z,957.24
2018-07-01T07:05:09.129Z,957.34
2018-07-01T07:06:09.160Z,957.33
2018-07-01T07:07:09.127Z,957.23
2018-07-01T07:08:09.218Z,957.28
2018-07-01T07:09:09.127Z,957.3
2018-07-01T07:10:09.129Z,957.26
2018-07-01T07:11:09.127Z,957.23
2018-07-01T07:12:09.128Z,957.27
2018-07-01T07:13:09.129Z,957.11
2018-07-01T07:14:09.129Z,957.17
2018-07-01T07:15:09.129Z,957.26
2018-07-01T07:16:09.147Z,957.23
2018-07-01T07:17:09.132Z,957.26
2018-07-01T07:18:09.131Z,957.22
2018-07-01T07:19:09.133Z,957.13
2018-07-01T07:20:09.136Z,957.25
2018-07-01T07:21:09.139Z,957.27
2018-07-01T07:22:09.137Z,957.25
2018-07-01T07:23:09.139Z,957.29
2018-07-01T07:24:09.141Z,957.25
2018-07-01T07:25:09.142Z,957.27
2018-07-01T07:26:09.142Z,957.31
2018-07-01T07:27:09.144Z,957.31
2018-07-01T07:28:09.146Z,957.3
2018-07-01T07:29:09.148Z,957.3
2018-07-01T07:30:09.149Z,957.3
2018-07-01T07:31:09.154Z,957.26
2018-07-01T07:32:09.154Z,957.29
2018-07-01T07:33:09.155Z,957.17
2018-07-01T07:34:09.159Z,957.34
2018-07-01T07:35:09.160Z,957.37
2018-07-01T07:36:09.165Z,957.32
2018-07-01T07:37:09.166Z,957.23
2018-07-01T07:38:09.168Z,957.15
2018-07-01T07:39:09.170Z,957.2
2018-07-01T07:40:09.171Z,957.29
2018-07-01T07:41:09.173Z,957.26
2018-07-01T07:42:09.177Z,957.21
2018-07-01T07:43:09.179Z,957.25
2018-07-01T07:44:09.181Z,957.25
2018-07-01T07:45:09.201Z,957.25
2018-07-01T07:46:09.182Z,957.26
2018-07-01T07:47:09.185Z,957.24
2018-07-01T07:48:09.188Z,957.29
2018-07-01T07:49:09.189Z,957.29
2018-07-01T07:50:09.193Z,957.3
2018-07-01T07:51:09.193Z,957.31
2018-07-01T07:52:09.224Z,957.29
2018-07-01T07:53:09.198Z,957.3
2018-07-01T07:54:09.200Z,957.28
2018-07-01T07:55:09.202Z,957.34
2018-07-01T07:56:09.206Z,957.33
2018-07-01T07:57:09.207Z,957.31
2018-07-01T07:58:09.208Z,957.33
2018-07-01T07:59:09.212Z,957.25
2018-07-01T08:00:09.213Z,957.34
2018-07-01T08:01:09.216Z,957.31
2018-07-01T08:02:09.218Z,957.3
2018-07-01T08:03:09.223Z,957.28
2018-07-01T08:04:09.224Z,957.31
2018-07-01T08:05:09.225Z,957.29
2018-07-01T08:06:09.226Z,957.25
2018-07-01T08:07:09.228Z,957.23
2018-07-01T08:08:09.233Z,957.27
2018-07-01T08:09:09.231Z,957.24
2018-07-01T08:10:09.234Z,957.28
2018-07-01T08:11:09.235Z,957.27
2018-07-01T08:12:09.238Z,957.28
2018-07-01T08:13:09.411Z,957.24
2018-07-01T08:14:09.240Z,957.26
2018-07-01T08:15:09.241Z,957.24
2018-07-01T08:16:09.242Z,957.34
2018-07-01T08:17:09.242Z,957.25
2018-07-01T08:18:09.242Z,957.31
2018-07-01T08:19:09.247Z,957.28
2018-07-01T08:20:09.245Z,957.28
2018-07-01T08:21:09.244Z,957.31
2018-07-01T08:22:09.246Z,957.3
2018-07-01T08:23:09.250Z,957.28
2018-07-01T08:24:09.245Z,957.25
2018-07-01T08:25:09.245Z,957.25
2018-07-01T08:26:09.247Z,957.28
2018-07-01T08:27:09.247Z,957.33
2018-07-01T08:28:09.245Z,957.28
2018-07-01T08:29:09.246Z,957.18
2018-07-01T08:30:09.244Z,957.17
2018-07-01T08:31:09.242Z,957.15
2018-07-01T08:32:09.242Z,957.23
2018-07-01T08:33:09.247Z,957.23
2018-07-01T08:34:09.241Z,957.17
2018-07-01T08:35:09.240Z,957.2
2018-07-01T08:36:09.238Z,957.18
2018-07-01T08:37:09.239Z,957.18
2018-07-01T08:38:09.236Z,957.22
2018-07-01T08:39:09.234Z,957.23
2018-07-01T08:40:09.293Z,957.21
2018-07-01T08:41:09.234Z,957.21
2018-07-01T08:42:09.228Z,957.18
2018-07-01T08:43:09.228Z,957.19
2018-07-01T08:44:09.229Z,957.12
2018-07-01T08:45:09.225Z,957.2
2018-07-01T08:46:09.243Z,957.21
2018-07-01T08:47:09.221Z,957.25
2018-07-01T08:48:09.220Z,957.24
2018-07-01T08:49:09.218Z,957.25
2018-07-01T08:50:09.214Z,957.23
2018-07-01T08:51:09.213Z,957.2
2018-07-01T08:52:09.210Z,957.29
2018-07-01T08:53:09.208Z,957.25
2018-07-01T08:54:09.205Z,957.29
2018-07-01T08:55:09.205Z,957.29
2018-07-01T08:56:09.202Z,957.24
2018-07-01T08:57:09.198Z,957.28
2018-07-01T08:58:09.197Z,957.27
2018-07-01T08:59:09.193Z,957.28
2018-07-01T09:00:09.191Z,957.29
2018-07-01T09:01:09.189Z,957.27
2018-07-01T09:02:09.185Z,957.24
2018-07-01T09:03:09.184Z,957.23
2018-07-01T09:04:09.180Z,957.24
2018-07-01T09:05:09.178Z,957.25
2018-07-01T09:06:09.175Z,957.25
2018-07-01T09:07:09.175Z,957.39
2018-07-01T09:08:09.169Z,957.25
2018-07-01T09:09:09.167Z,957.31
2018-07-01T09:10:09.200Z,957.32
2018-07-01T09:11:09.162Z,957.34
2018-07-01T09:12:09.158Z,957.3
2018-07-01T09:13:09.157Z,957.33
2018-07-01T09:14:09.153Z,957.34
2018-07-01T09:15:09.152Z,957.32
2018-07-01T09:16:09.148Z,957.42
2018-07-01T09:17:09.179Z,957.4
2018-07-01T09:18:09.143Z,957.39
2018-07-01T09:19:09.138Z,957.38
2018-07-01T09:20:09.136Z,957.43
2018-07-01T09:21:09.140Z,957.43
2018-07-01T09:22:09.133Z,957.43
2018-07-01T09:23:09.130Z,957.34
2018-07-01T09:24:09.126Z,957.31
2018-07-01T09:25:09.123Z,957.43
2018-07-01T09:26:09.120Z,957.38
2018-07-01T09:27:09.117Z,957.33
2018-07-01T09:28:09.115Z,957.33
2018-07-01T09:29:09.112Z,957.35
2018-07-01T09:30:09.110Z,957.4
2018-07-01T09:31:09.107Z,957.33
2018-07-01T09:32:09.105Z,957.4
2018-07-01T09:33:09.101Z,957.42
2018-07-01T09:34:09.102Z,957.33
2018-07-01T09:35:09.097Z,957.33
2018-07-01T09:36:09.093Z,957.34
2018-07-01T09:37:09.090Z,957.3
2018-07-01T09:38:09.089Z,957.36
2018-07-01T09:39:09.085Z,957.39
2018-07-01T09:40:09.082Z,957.37
2018-07-01T09:41:09.081Z,957.36
2018-07-01T09:42:09.077Z,957.32
2018-07-01T09:43:09.073Z,957.32
2018-07-01T09:44:09.072Z,957.24
2018-07-01T09:45:09.069Z,957.28
2018-07-01T09:46:09.066Z,957.4
2018-07-01T09:47:09.064Z,957.42
2018-07-01T09:48:09.060Z,957.37
2018-07-01T09:49:09.058Z,957.39
2018-07-01T09:50:09.059Z,957.37
2018-07-01T09:51:09.055Z,957.38
2018-07-01T09:52:09.049Z,957.41
2018-07-01T09:53:09.047Z,957.43
2018-07-01T09:54:09.045Z,957.38
2018-07-01T09:55:09.042Z,957.37
2018-07-01T09:56:09.041Z,957.44
2018-07-01T09:57:09.042Z,957.4
2018-07-01T09:58:09.037Z,957.36
2018-07-01T09:59:09.030Z,957.38
2018-07-01T10:00:09.039Z,957.43
2018-07-01T10:01:09.031Z,957.39
2018-07-01T10:02:09.023Z,957.42
2018-07-01T10:03:09.020Z,957.46
2018-07-01T10:04:09.018Z,957.45
2018-07-01T10:05:09.015Z,957.44
2018-07-01T10:06:09.012Z,957.44
2018-07-01T10:07:09.010Z,957.44
2018-07-01T10:08:09.008Z,957.42
2018-07-01T10:09:09.003Z,957.44
2018-07-01T10:10:09.000Z,957.41
2018-07-01T10:11:08.998Z,957.34
2018-07-01T10:12:08.996Z,957.34
2018-07-01T10:13:08.992Z,957.36
2018-07-01T10:14:08.989Z,957.43
2018-07-01T10:15:08.987Z,957.45
2018-07-01T10:16:08.984Z,957.42
2018-07-01T10:17:08.981Z,957.41
2018-07-01T10:18:08.978Z,957.5
2018-07-01T10:19:08.977Z,957.45
2018-07-01T10:20:08.975Z,957.42
2018-07-01T10:21:08.972Z,957.37
2018-07-01T10:22:08.968Z,957.41
2018-07-01T10:23:08.966Z,957.4
2018-07-01T10:24:08.964Z,957.49
2018-07-01T10:25:08.960Z,957.46
2018-07-01T10:26:08.959Z,957.55
2018-07-01T10:27:08.955Z,957.44
2018-07-01T10:28:08.952Z,957.4
2018-07-01T10:29:08.949Z,957.45
2018-07-01T10:30:08.946Z,957.48
2018-07-01T10:31:08.945Z,957.45
2018-07-01T10:32:08.941Z,957.49
2018-07-01T10:33:08.938Z,957.44
2018-07-01T10:34:08.936Z,957.47
2018-07-01T10:35:08.935Z,957.46
2018-07-01T10:36:08.930Z,957.46
2018-07-01T10:37:08.928Z,957.49
2018-07-01T10:38:08.925Z,957.48
2018-07-01T10:39:08.923Z,957.42
2018-07-01T10:40:08.960Z,957.44
2018-07-01T10:41:08.917Z,957.45
2018-07-01T10:42:08.914Z,957.47
2018-07-01T10:43:08.910Z,957.49
2018-07-01T10:44:08.909Z,957.54
2018-07-01T10:45:08.906Z,957.51
2018-07-01T10:46:08.904Z,957.48
2018-07-01T10:47:08.899Z,957.53
2018-07-01T10:48:08.897Z,957.61
2018-07-01T10:49:08.894Z,957.54
2018-07-01T10:50:08.890Z,957.54
2018-07-01T10:51:08.888Z,957.52
2018-07-01T10:52:08.891Z,957.49
2018-07-01T10:53:08.883Z,957.45
2018-07-01T10:54:08.880Z,957.54
2018-07-01T10:55:08.877Z,957.53
2018-07-01T10:56:08.875Z,957.47
2018-07-01T10:57:08.873Z,957.53
2018-07-01T10:58:08.873Z,957.39
2018-07-01T10:59:08.867Z,957.38
2018-07-01T11:00:08.865Z,957.43
2018-07-01T11:01:08.868Z,957.41
2018-07-01T11:02:08.860Z,957.37
2018-07-01T11:03:08.858Z,957.37
2018-07-01T11:04:08.855Z,957.4
2018-07-01T11:05:08.851Z,957.41
2018-07-01T11:06:08.991Z,957.5
2018-07-01T11:07:08.846Z,957.5
2018-07-01T11:08:08.843Z,957.48
2018-07-01T11:09:08.842Z,957.41
2018-07-01T11:10:08.839Z,957.41
2018-07-01T11:11:08.838Z,957.4
2018-07-01T11:12:08.835Z,957.46
2018-07-01T11:13:08.832Z,957.47
2018-07-01T11:14:08.830Z,957.4
2018-07-01T11:15:08.827Z,957.46
2018-07-01T11:16:08.823Z,957.39
2018-07-01T11:17:08.822Z,957.39
2018-07-01T11:18:08.819Z,957.29
2018-07-01T11:19:08.816Z,957.3
2018-07-01T11:20:08.813Z,957.33
2018-07-01T11:21:08.813Z,957.36
2018-07-01T11:22:08.811Z,957.33
2018-07-01T11:23:08.806Z,957.37
2018-07-01T11:24:08.804Z,957.38
2018-07-01T11:25:08.803Z,957.43
2018-07-01T11:26:08.801Z,957.39
2018-07-01T11:27:08.974Z,957.4
2018-07-01T11:28:08.796Z,957.35
2018-07-01T11:29:08.793Z,957.36
2018-07-01T11:30:08.792Z,957.37
2018-07-01T11:31:08.787Z,957.35
2018-07-01T11:32:08.787Z,957.37
2018-07-01T11:33:08.790Z,957.4
2018-07-01T11:34:08.779Z,957.46
2018-07-01T11:35:08.801Z,957.36
2018-07-01T11:36:08.777Z,957.38
2018-07-01T11:37:08.774Z,957.35
2018-07-01T11:38:08.788Z,957.35
2018-07-01T11:39:08.768Z,957.36
2018-07-01T11:40:08.768Z,957.3
2018-07-01T11:41:08.768Z,957.29
2018-07-01T11:42:08.762Z,957.3
2018-07-01T11:43:08.759Z,957.26
2018-07-01T11:44:08.756Z,957.34
2018-07-01T11:45:08.754Z,957.34
2018-07-01T11:46:08.753Z,957.29
2018-07-01T11:47:08.749Z,957.36
2018-07-01T11:48:08.749Z,957.42
2018-07-01T11:49:08.746Z,957.39
2018-07-01T11:50:08.743Z,957.3
2018-07-01T11:51:08.740Z,957.31
2018-07-01T11:52:08.760Z,957.28
2018-07-01T11:53:08.735Z,957.24
2018-07-01T11:54:08.733Z,957.25
2018-07-01T11:55:08.733Z,957.22
2018-07-01T11:56:08.728Z,957.19
2018-07-01T11:57:08.726Z,957.23
2018-07-01T11:58:08.739Z,957.29
2018-07-01T11:59:08.721Z,957.28
2018-07-01T12:00:08.718Z,957.25
2018-07-01T12:01:08.716Z,957.23
2018-07-01T12:02:08.713Z,957.25
2018-07-01T12:03:08.717Z,957.24
2018-07-01T12:04:08.708Z,957.26
2018-07-01T12:05:16.665Z,957.27
2018-07-01T12:06:08.704Z,957.31
2018-07-01T12:07:08.701Z,957.26
2018-07-01T12:08:08.698Z,957.24
2018-07-01T12:09:08.696Z,957.26
2018-07-01T12:10:08.694Z,957.22
2018-07-01T12:11:08.690Z,957.25
2018-07-01T12:12:08.691Z,957.26
2018-07-01T12:13:08.685Z,957.23
2018-07-01T12:14:08.683Z,957.22
2018-07-01T12:15:08.682Z,957.14
2018-07-01T12:16:08.677Z,957.19
2018-07-01T12:17:08.676Z,957.21
2018-07-01T12:18:08.672Z,957.1
2018-07-01T12:19:08.674Z,957.11
2018-07-01T12:20:08.668Z,957.11
2018-07-01T12:21:08.666Z,957.07
2018-07-01T12:22:08.663Z,957.11
2018-07-01T12:23:08.660Z,957.1
2018-07-01T12:24:08.661Z,957.14
2018-07-01T12:25:08.654Z,957.1
2018-07-01T12:26:08.652Z,957.07
2018-07-01T12:27:08.651Z,957.09
2018-07-01T12:28:08.647Z,957.06
2018-07-01T12:29:08.645Z,957.16
2018-07-01T12:30:08.645Z,957.15
2018-07-01T12:31:08.639Z,957.19